Ana Sayfa
METAR-TAF:

METAR-TAF

Havaalanları :

Warrenton, Virginia, Amerika Birleşik Devletleri

Enlem: 38-35-11N, Boylam: 077-42-38W, yükseklik: 102 m

Güncel hava durumu gözlemi

Rapor saat 10:15 UTC de 19 dakika önce yapıldı.
Rüzgar kuzeybatıdan 4 kt
Sıcaklık 1°C
Nem 80%
Basınç 1026 hPa
Görüş mesafesi: 11.3 km
2000 ft yükseklikte parçalı bulutlu
4900 ft yükseklikte parçalı çok bulutlu
7500 ft yükseklikte çok bulutlu
hafif kar

METAR: KHWY 111015Z AUTO 32004KT 7SM -SN SCT020 BKN049 OVC075 01/M02 A3030 RMK AO2 T00071017

Saat: 05:34 (10:34 UTC)


TAF: eksik

4.000'den fazla havaalanı için hava durumu gözlemleri ve tahminleri (METAR ve TAF raporları).

Kullanılabilir istasyonlar harita üzerinde sarı ve kırmızı noktalarla gösterilir.

İstasyonun adını görmek için fareyi noktanın üzerinde gezdirin.

Sonrasında hava gözlem ve tahminlerini görmek için tıklayın.

Haritayı değiştirmek için: yaklaştırmak için siyah artı işaretli yeşil düğmeye ve uzaklaştırmak için de eksi işaretli düğmeye hızla tıklayın; bitişik haritalar için yeşil okları kullanın.


METAR-TAF: